Time;durP1;ratioP1;P1;durP2;ratioP2;P2;SDS_P1;SDS_P2;PMS_P1;PMS_P2;Temp;Humidity;BMP_temperature;BMP_pressure;BME280_temperature;BME280_humidity;BME280_pressure;Samples;Min_cycle;Max_cycle;Signal;HPM_P1;HPM_P2
2022/10/18 00:00:54;;;;;;;59.45;56.45;;;;;;;12.34;100.00;102521.63;5059741;28;20039;-72
2022/10/18 00:03:19;;;;;;;58.97;56.35;;;;;;;12.33;100.00;102515.50;5062936;28;20136;-72
2022/10/18 00:05:46;;;;;;;62.63;59.53;;;;;;;12.29;100.00;102505.28;5061553;28;20029;-72
2022/10/18 00:08:11;;;;;;;57.45;54.60;;;;;;;12.28;100.00;102501.78;5061327;28;20025;-72
2022/10/18 00:10:37;;;;;;;55.78;52.60;;;;;;;12.28;100.00;102507.09;5060865;28;20039;-72
2022/10/18 00:13:02;;;;;;;54.33;51.92;;;;;;;12.27;100.00;102505.38;5061793;28;20063;-72
2022/10/18 00:15:28;;;;;;;55.95;53.45;;;;;;;12.24;100.00;102505.63;5061281;28;20082;-72
2022/10/18 00:17:53;;;;;;;60.10;57.10;;;;;;;12.23;100.00;102498.63;5061447;28;20078;-72
2022/10/18 00:20:18;;;;;;;55.75;52.83;;;;;;;12.23;100.00;102500.44;5060898;28;20040;-72
2022/10/18 00:22:44;;;;;;;52.22;49.75;;;;;;;12.22;100.00;102506.72;5060504;28;20029;-72
2022/10/18 00:25:09;;;;;;;54.40;51.67;;;;;;;12.21;100.00;102499.72;5062545;28;20028;-72
2022/10/18 00:27:35;;;;;;;59.08;56.03;;;;;;;12.21;100.00;102511.16;5061325;28;20063;-72
2022/10/18 00:30:00;;;;;;;65.53;62.33;;;;;;;12.21;100.00;102516.44;5061174;28;20028;-72
2022/10/18 00:32:26;;;;;;;52.45;50.05;;;;;;;12.21;100.00;102513.81;5061632;28;20025;-72
2022/10/18 00:34:51;;;;;;;56.70;54.22;;;;;;;12.05;100.00;102489.50;5061292;28;20712;-71
2022/10/18 00:37:17;;;;;;;59.80;56.45;;;;;;;12.20;100.00;102520.06;5059303;28;20127;-71
2022/10/18 00:39:43;;;;;;;57.60;55.15;;;;;;;12.11;100.00;102503.09;5061899;28;20039;-71
2022/10/18 00:42:20;;;;;;;60.38;57.47;;;;;;;12.20;100.00;102513.94;5060902;28;20476;-72
2022/10/18 00:44:45;;;;;;;57.25;54.35;;;;;;;12.24;100.00;102513.56;5059452;28;20036;-72
2022/10/18 00:47:13;;;;;;;59.38;56.78;;;;;;;12.26;100.00;102514.31;5060042;28;20036;-72
2022/10/18 00:49:47;;;;;;;59.08;56.15;;;;;;;12.26;100.00;102513.44;5061369;28;20025;-72
2022/10/18 00:52:17;;;;;;;61.47;58.92;;;;;;;12.22;100.00;102507.56;5059707;28;20593;-71
2022/10/18 00:54:45;;;;;;;62.55;59.50;;;;;;;12.24;100.00;102521.53;5061325;28;20357;-71
2022/10/18 00:57:11;;;;;;;56.40;53.58;;;;;;;12.15;100.00;102514.31;5060202;28;20024;-71
2022/10/18 00:59:37;;;;;;;56.65;53.70;;;;;;;12.20;100.00;102530.66;5060892;28;20063;-72
2022/10/18 01:02:03;;;;;;;61.42;58.28;;;;;;;12.17;100.00;102530.88;5059971;28;20072;-73
2022/10/18 01:04:29;;;;;;;61.15;58.33;;;;;;;12.15;100.00;102532.84;5060891;28;20040;-72
2022/10/18 01:07:23;;;;;;;67.25;64.05;;;;;;;12.10;100.00;102524.38;5060157;28;20037;-72
2022/10/18 01:10:20;;;;;;;59.92;57.20;;;;;;;12.08;100.00;102521.84;5060055;28;20040;-72
2022/10/18 01:12:56;;;;;;;62.55;59.85;;;;;;;12.04;100.00;102531.00;5059543;28;20028;-72
2022/10/18 01:15:28;;;;;;;60.95;58.10;;;;;;;11.94;100.00;102520.28;5061100;28;20037;-72
2022/10/18 01:18:12;;;;;;;60.67;57.95;;;;;;;12.02;100.00;102532.94;5059265;28;20056;-73
2022/10/18 01:20:52;;;;;;;63.80;60.92;;;;;;;11.93;100.00;102534.47;5061093;28;20036;-72
2022/10/18 01:23:52;;;;;;;63.47;60.28;;;;;;;11.88;100.00;102531.31;5061949;28;20024;-72
2022/10/18 01:26:46;;;;;;;60.72;58.10;;;;;;;11.87;100.00;102526.13;5060849;28;20108;-72
2022/10/18 01:29:49;;;;;;;54.45;52.00;;;;;;;11.77;100.00;102533.09;5060272;28;20090;-72
2022/10/18 01:32:25;;;;;;;66.90;63.92;;;;;;;11.77;100.00;102519.84;5058868;28;20541;-72
2022/10/18 01:34:56;;;;;;;64.60;61.63;;;;;;;11.75;100.00;102517.31;5059521;28;20060;-72
2022/10/18 01:37:23;;;;;;;65.15;62.38;;;;;;;11.80;100.00;102511.69;5058765;28;20024;-72
2022/10/18 01:39:53;;;;;;;66.78;63.58;;;;;;;11.72;100.00;102504.34;5067102;28;20029;-72
2022/10/18 01:42:19;;;;;;;62.33;59.15;;;;;;;11.80;100.00;102517.84;5060082;28;20454;-71
2022/10/18 01:44:47;;;;;;;63.75;61.00;;;;;;;11.60;100.00;102495.53;5059389;28;20168;-73
2022/10/18 01:47:14;;;;;;;65.07;62.33;;;;;;;11.78;100.00;102527.69;5065855;28;20119;-72
2022/10/18 01:49:39;;;;;;;63.35;60.42;;;;;;;11.79;100.00;102521.41;5060483;28;20024;-72
2022/10/18 01:52:05;;;;;;;64.22;61.33;;;;;;;11.80;100.00;102523.13;5059697;28;20033;-72
2022/10/18 01:54:35;;;;;;;61.10;58.38;;;;;;;11.82;100.00;102521.19;5060405;28;20028;-72
2022/10/18 01:57:23;;;;;;;65.50;62.40;;;;;;;11.82;100.00;102526.47;5060318;28;20490;-74
2022/10/18 02:00:00;;;;;;;61.80;59.13;;;;;;;11.76;100.00;102508.44;5057371;28;20043;-71
2022/10/18 02:03:05;;;;;;;60.20;57.47;;;;;;;11.81;100.00;102530.09;5057035;28;20040;-70
2022/10/18 02:05:50;;;;;;;62.28;59.42;;;;;;;11.78;100.00;102526.81;5058677;28;20036;-70
2022/10/18 02:08:26;;;;;;;61.08;57.65;;;;;;;11.67;100.00;102510.00;5059393;28;20691;-70
2022/10/18 02:11:03;;;;;;;63.83;61.00;;;;;;;11.72;100.00;102528.97;5066799;28;20391;-70
2022/10/18 02:13:45;;;;;;;67.20;63.80;;;;;;;11.73;100.00;102537.75;5059342;28;20024;-70
2022/10/18 02:16:19;;;;;;;64.78;61.85;;;;;;;11.59;100.00;102514.16;5058403;28;20039;-70
2022/10/18 02:18:49;;;;;;;65.20;62.47;;;;;;;11.76;100.00;102537.53;5059396;28;20139;-70
2022/10/18 02:21:17;;;;;;;67.85;64.60;;;;;;;11.72;100.00;102547.50;5059392;28;20365;-70
2022/10/18 02:23:45;;;;;;;63.30;60.45;;;;;;;11.75;100.00;102541.13;5057523;28;20028;-72
2022/10/18 02:26:12;;;;;;;61.30;58.28;;;;;;;11.69;100.00;102534.53;5059370;28;20031;-72
2022/10/18 02:28:38;;;;;;;65.38;62.45;;;;;;;11.74;100.00;102539.47;5058751;28;20491;-71
2022/10/18 02:31:18;;;;;;;65.65;62.63;;;;;;;11.62;100.00;102527.16;5059192;28;20037;-71
2022/10/18 02:33:56;;;;;;;62.10;59.45;;;;;;;11.79;100.00;102555.81;5058864;28;20044;-71
2022/10/18 02:36:30;;;;;;;67.28;63.88;;;;;;;11.79;100.00;102547.03;5058055;28;20032;-71
2022/10/18 02:39:04;;;;;;;62.45;59.75;;;;;;;11.84;100.00;102550.16;5057311;28;20060;-71
2022/10/18 02:41:30;;;;;;;54.13;51.65;;;;;;;11.84;100.00;102542.22;5059719;28;20500;-71
2022/10/18 02:43:55;;;;;;;55.42;52.85;;;;;;;11.85;100.00;102531.53;5057803;28;20025;-71
2022/10/18 02:46:21;;;;;;;63.42;60.65;;;;;;;11.83;100.00;102536.09;5058908;28;20040;-72
2022/10/18 02:48:46;;;;;;;61.92;58.47;;;;;;;11.84;100.00;102535.13;5058471;28;20036;-72
2022/10/18 02:51:12;;;;;;;63.08;60.17;;;;;;;11.80;100.00;102535.47;5065798;28;20037;-72
2022/10/18 02:53:37;;;;;;;62.38;59.42;;;;;;;11.72;100.00;102526.34;5058691;28;20144;-71
2022/10/18 02:56:03;;;;;;;61.15;58.25;;;;;;;11.83;100.00;102548.50;5057462;28;20369;-71
2022/10/18 02:58:28;;;;;;;58.28;55.33;;;;;;;11.83;100.00;102551.13;5057940;28;20028;-72
2022/10/18 03:00:54;;;;;;;58.88;56.17;;;;;;;11.77;100.00;102555.09;5058998;28;20561;-71
2022/10/18 03:03:20;;;;;;;59.30;56.65;;;;;;;11.73;100.00;102553.63;5058053;28;20050;-71
2022/10/18 03:05:48;;;;;;;58.05;55.40;;;;;;;11.59;100.00;102530.03;5058541;28;20035;-72
2022/10/18 03:08:14;;;;;;;67.15;64.20;;;;;;;11.64;100.00;102543.75;5058186;28;20024;-71
2022/10/18 03:10:42;;;;;;;59.25;56.55;;;;;;;11.64;100.00;102536.66;5057427;28;20507;-71
2022/10/18 03:13:08;;;;;;;54.38;51.58;;;;;;;11.57;100.00;102531.94;5058624;28;20040;-71
2022/10/18 03:15:33;;;;;;;64.45;61.40;;;;;;;11.59;100.00;102535.31;5058519;28;20032;-71
2022/10/18 03:17:58;;;;;;;58.53;56.13;;;;;;;11.63;100.00;102542.91;5057754;28;20416;-71
2022/10/18 03:20:24;;;;;;;60.45;57.75;;;;;;;11.62;100.00;102550.94;5057899;28;20393;-72
2022/10/18 03:22:50;;;;;;;58.15;55.47;;;;;;;11.64;100.00;102554.31;5056564;28;20040;-71
2022/10/18 03:25:15;;;;;;;59.70;57.22;;;;;;;11.69;100.00;102552.16;5057739;28;20033;-71
2022/10/18 03:27:40;;;;;;;62.33;59.35;;;;;;;11.73;100.00;102553.63;5058137;28;20561;-71
2022/10/18 03:30:07;;;;;;;58.80;56.05;;;;;;;11.73;100.00;102553.63;5058438;28;20025;-71
2022/10/18 03:32:32;;;;;;;56.22;53.80;;;;;;;11.73;100.00;102549.16;5058427;28;20032;-71
2022/10/18 03:34:58;;;;;;;60.45;57.75;;;;;;;11.67;100.00;102546.16;5062499;28;20515;-71
2022/10/18 03:37:23;;;;;;;53.25;51.00;;;;;;;11.61;100.00;102554.56;5061876;28;20098;-71
2022/10/18 03:39:49;;;;;;;57.28;54.80;;;;;;;11.48;100.00;102546.69;5063164;28;20024;-71
2022/10/18 03:42:14;;;;;;;52.58;50.25;;;;;;;11.40;100.00;102538.50;5061973;28;20037;-71
2022/10/18 03:44:39;;;;;;;65.03;62.30;;;;;;;11.42;100.00;102550.63;5060150;28;20499;-73
2022/10/18 03:47:05;;;;;;;61.28;58.63;;;;;;;11.45;100.00;102561.00;5062052;28;20102;-71
2022/10/18 03:49:30;;;;;;;64.10;61.28;;;;;;;11.48;100.00;102560.75;5062529;28;20503;-71
2022/10/18 03:51:55;;;;;;;60.75;57.95;;;;;;;11.47;100.00;102559.06;5062516;28;20066;-72
2022/10/18 03:54:21;;;;;;;58.05;55.53;;;;;;;11.48;100.00;102549.34;5061859;28;20025;-72
2022/10/18 03:56:46;;;;;;;65.93;63.15;;;;;;;11.42;100.00;102545.34;5062818;28;20055;-72
2022/10/18 03:59:12;;;;;;;65.35;62.22;;;;;;;11.33;100.00;102540.75;5061578;28;20051;-71
2022/10/18 04:01:37;;;;;;;62.92;60.33;;;;;;;11.31;100.00;102559.34;5061458;28;20120;-72
2022/10/18 04:04:03;;;;;;;62.08;59.33;;;;;;;11.37;100.00;102568.66;5061830;28;20108;-71
2022/10/18 04:06:28;;;;;;;63.35;60.65;;;;;;;11.39;100.00;102563.22;5061188;28;20029;-72
2022/10/18 04:08:54;;;;;;;66.78;64.07;;;;;;;11.45;100.00;102562.78;5062678;28;20028;-71
2022/10/18 04:11:19;;;;;;;59.28;56.83;;;;;;;11.49;100.00;102565.06;5061993;28;20051;-71
2022/10/18 04:13:45;;;;;;;64.35;61.05;;;;;;;11.49;100.00;102564.25;5060989;28;20476;-71
2022/10/18 04:16:10;;;;;;;60.75;58.25;;;;;;;11.38;100.00;102554.47;5060869;28;20021;-71
2022/10/18 04:18:37;;;;;;;59.63;56.85;;;;;;;11.39;100.00;102556.16;5060758;28;20687;-71
2022/10/18 04:21:03;;;;;;;58.80;56.30;;;;;;;11.33;100.00;102556.59;5061375;28;20041;-71
2022/10/18 04:23:28;;;;;;;58.72;56.25;;;;;;;11.38;100.00;102562.38;5061126;28;20476;-71
2022/10/18 04:25:54;;;;;;;55.83;53.40;;;;;;;11.35;100.00;102559.16;5061864;28;20071;-72
2022/10/18 04:28:19;;;;;;;55.67;52.15;;;;;;;11.32;100.00;102554.91;5061020;28;20028;-72
2022/10/18 04:30:50;;;;;;;59.33;56.75;;;;;;;11.26;100.00;102558.03;5061620;28;20025;-72
2022/10/18 04:33:15;;;;;;;58.88;56.28;;;;;;;11.26;100.00;102565.94;5062608;28;20048;-72
2022/10/18 04:35:40;;;;;;;66.68;63.83;;;;;;;11.21;100.00;102553.03;5061165;28;20029;-72
2022/10/18 04:38:06;;;;;;;61.65;59.00;;;;;;;11.18;100.00;102540.06;5059024;28;20062;-71
2022/10/18 04:40:31;;;;;;;59.80;57.40;;;;;;;11.26;100.00;102565.94;5060690;28;20103;-71
2022/10/18 04:42:56;;;;;;;55.30;52.83;;;;;;;11.32;100.00;102578.69;5062125;28;20890;-71
2022/10/18 04:45:22;;;;;;;62.75;59.80;;;;;;;11.36;100.00;102566.94;5059788;28;20038;-72
2022/10/18 04:47:47;;;;;;;58.30;55.90;;;;;;;11.35;100.00;102570.56;5061208;28;20103;-72
2022/10/18 04:50:12;;;;;;;61.13;58.70;;;;;;;11.43;100.00;102577.91;5043985;28;20428;-71
2022/10/18 04:52:38;;;;;;;59.85;57.35;;;;;;;11.46;100.00;102583.81;5061330;28;20047;-72
2022/10/18 04:55:03;;;;;;;57.40;54.83;;;;;;;11.29;100.00;102565.72;5062265;28;20055;-71
2022/10/18 04:57:29;;;;;;;56.53;54.03;;;;;;;11.40;100.00;102572.84;5059677;28;20066;-72
2022/10/18 04:59:54;;;;;;;55.05;52.70;;;;;;;11.44;100.00;102569.88;5060725;28;20408;-72
2022/10/18 05:02:19;;;;;;;57.22;54.65;;;;;;;11.43;100.00;102565.56;5060908;28;20060;-71
2022/10/18 05:04:45;;;;;;;51.53;49.17;;;;;;;11.47;100.00;102568.78;5058044;28;20074;-71
2022/10/18 05:07:10;;;;;;;59.75;57.20;;;;;;;11.51;100.00;102563.16;5061096;28;20056;-71
2022/10/18 05:09:35;;;;;;;51.03;48.92;;;;;;;11.51;100.00;102564.97;5061342;28;20425;-71
2022/10/18 05:12:01;;;;;;;53.38;51.05;;;;;;;11.42;100.00;102555.09;5061823;28;20070;-71
2022/10/18 05:14:26;;;;;;;60.22;57.65;;;;;;;11.51;100.00;102564.97;5045076;28;20142;-71
2022/10/18 05:16:51;;;;;;;55.53;53.15;;;;;;;11.41;100.00;102550.75;5061307;28;20040;-72
2022/10/18 05:19:17;;;;;;;57.80;55.38;;;;;;;11.53;100.00;102568.34;5049404;28;20056;-72
2022/10/18 05:21:42;;;;;;;61.95;59.25;;;;;;;11.48;100.00;102568.69;5058951;28;20045;-72
2022/10/18 05:24:10;;;;;;;59.78;56.92;;;;;;;11.42;100.00;102563.84;5060068;28;20033;-72
2022/10/18 05:26:35;;;;;;;58.28;55.65;;;;;;;11.37;100.00;102554.59;5058575;28;20461;-73
2022/10/18 05:29:01;;;;;;;58.75;56.25;;;;;;;11.28;100.00;102561.41;5060531;28;20044;-71
2022/10/18 05:31:26;;;;;;;62.97;60.28;;;;;;;11.27;100.00;102562.34;5060333;28;20037;-72
2022/10/18 05:33:52;;;;;;;60.40;57.72;;;;;;;11.18;100.00;102558.56;5061498;28;20052;-73
2022/10/18 05:36:17;;;;;;;59.55;57.00;;;;;;;10.97;100.00;102546.91;5059163;28;20035;-71
2022/10/18 05:38:44;;;;;;;61.78;59.05;;;;;;;10.78;100.00;102532.41;5056393;28;20032;-71
2022/10/18 05:41:10;;;;;;;57.75;55.35;;;;;;;10.79;100.00;102557.00;5056533;28;20043;-71
2022/10/18 05:43:35;;;;;;;67.95;65.15;;;;;;;10.69;100.00;102548.88;5058876;28;20115;-71
2022/10/18 05:46:03;;;;;;;60.88;58.33;;;;;;;10.64;100.00;102559.78;5056693;28;20483;-73
2022/10/18 05:48:29;;;;;;;63.53;60.80;;;;;;;10.58;100.00;102554.94;5056875;28;20024;-71
2022/10/18 05:50:58;;;;;;;62.65;60.13;;;;;;;10.69;100.00;102570.88;5056269;28;20119;-71
2022/10/18 05:53:23;;;;;;;59.28;56.83;;;;;;;10.66;100.00;102568.44;5055925;28;20115;-71
2022/10/18 05:55:48;;;;;;;61.03;58.50;;;;;;;10.73;100.00;102573.28;5038599;28;20115;-71
2022/10/18 05:58:14;;;;;;;63.08;60.17;;;;;;;10.68;100.00;102571.81;5054782;28;20120;-72
2022/10/18 06:00:39;;;;;;;58.25;55.90;;;;;;;10.66;100.00;102557.88;5054334;28;20115;-72
2022/10/18 06:03:04;;;;;;;62.58;60.00;;;;;;;10.57;100.00;102562.97;5055169;28;20039;-72
2022/10/18 06:05:30;;;;;;;55.80;52.60;;;;;;;10.44;100.00;102568.25;5053981;28;20075;-72
2022/10/18 06:07:55;;;;;;;60.10;57.53;;;;;;;10.37;100.00;102562.56;5053247;28;20037;-72
2022/10/18 06:10:21;;;;;;;58.42;55.92;;;;;;;10.33;100.00;102558.44;5053536;28;20545;-72
2022/10/18 06:12:46;;;;;;;67.40;64.50;;;;;;;10.29;100.00;102554.31;5052966;28;20778;-72
2022/10/18 06:15:12;;;;;;;63.67;60.70;;;;;;;10.24;100.00;102577.53;5051789;28;20568;-72
2022/10/18 06:17:37;;;;;;;57.30;55.00;;;;;;;10.26;100.00;102570.34;5051628;28;20161;-72
2022/10/18 06:20:03;;;;;;;64.25;61.70;;;;;;;10.16;100.00;102569.28;5053168;28;20029;-72
2022/10/18 06:22:29;;;;;;;56.58;54.38;;;;;;;10.05;100.00;102572.66;5054161;28;20036;-72
2022/10/18 06:24:54;;;;;;;62.95;60.00;;;;;;;9.98;100.00;102566.13;5054745;28;20051;-72
2022/10/18 06:27:19;;;;;;;58.40;56.13;;;;;;;10.08;100.00;102575.06;5050996;28;20043;-72
2022/10/18 06:29:44;;;;;;;57.00;54.78;;;;;;;9.95;100.00;102561.91;5055153;28;20033;-72
2022/10/18 06:32:10;;;;;;;62.38;59.83;;;;;;;10.07;100.00;102581.31;5054572;28;20059;-73
2022/10/18 06:34:35;;;;;;;59.78;57.58;;;;;;;10.16;100.00;102606.22;5054963;28;20153;-73
2022/10/18 06:37:01;;;;;;;61.88;59.42;;;;;;;10.28;100.00;102611.53;5052648;28;20036;-73
2022/10/18 06:39:27;;;;;;;60.28;57.92;;;;;;;10.34;100.00;102612.06;5056740;28;20036;-73
2022/10/18 06:41:52;;;;;;;62.20;59.85;;;;;;;10.41;100.00;102615.97;5053848;28;20041;-74
2022/10/18 06:44:19;;;;;;;58.55;56.25;;;;;;;10.27;100.00;102609.81;5054636;28;20611;-73
2022/10/18 06:46:46;;;;;;;56.83;54.55;;;;;;;10.18;100.00;102622.81;5054462;28;20043;-73
2022/10/18 06:49:13;;;;;;;54.67;52.40;;;;;;;10.16;100.00;102612.34;5054824;28;20601;-74
2022/10/18 06:51:39;;;;;;;50.20;48.00;;;;;;;10.21;100.00;102626.09;5053878;28;20119;-73
2022/10/18 06:54:04;;;;;;;53.70;51.63;;;;;;;10.23;100.00;102623.31;5053882;28;20041;-75
2022/10/18 06:56:30;;;;;;;55.22;53.15;;;;;;;10.22;100.00;102633.03;5050329;28;20037;-74
2022/10/18 06:58:55;;;;;;;56.25;54.10;;;;;;;10.26;100.00;102629.25;5054111;28;20036;-74
2022/10/18 07:01:21;;;;;;;52.00;49.97;;;;;;;10.32;100.00;102629.81;5052577;28;20559;-73
2022/10/18 07:03:48;;;;;;;60.72;58.42;;;;;;;10.20;100.00;102611.19;5053369;28;20430;-74
2022/10/18 07:06:16;;;;;;;57.78;55.50;;;;;;;10.37;100.00;102635.63;5060982;28;20032;-73
2022/10/18 07:08:42;;;;;;;66.20;63.65;;;;;;;10.58;100.00;102654.41;5053458;28;20170;-73
2022/10/18 07:11:13;;;;;;;62.65;60.22;;;;;;;10.66;100.00;102637.09;5054374;28;20027;-73
2022/10/18 07:13:39;;;;;;;56.80;54.65;;;;;;;10.38;100.00;102624.94;5054765;28;20472;-74
2022/10/18 07:16:07;;;;;;;53.38;51.28;;;;;;;10.24;100.00;102630.31;5054359;28;20057;-73
2022/10/18 07:18:35;;;;;;;49.80;47.80;;;;;;;10.33;100.00;102626.22;5055142;28;20052;-72
2022/10/18 07:21:02;;;;;;;53.30;51.25;;;;;;;10.43;100.00;102636.06;5054688;28;20377;-72
2022/10/18 07:23:28;;;;;;;52.70;50.58;;;;;;;10.39;100.00;102633.72;5054701;28;20033;-72
2022/10/18 07:25:53;;;;;;;60.40;58.00;;;;;;;10.42;100.00;102639.63;5055484;28;20409;-72
2022/10/18 07:28:18;;;;;;;56.85;54.67;;;;;;;10.48;100.00;102646.28;5053243;28;20043;-72
2022/10/18 07:30:44;;;;;;;54.47;52.20;;;;;;;10.42;100.00;102646.72;5055460;28;20040;-72
2022/10/18 07:33:09;;;;;;;62.78;60.33;;;;;;;10.27;100.00;102628.28;5057450;28;20037;-72
2022/10/18 07:35:35;;;;;;;60.33;58.00;;;;;;;10.31;100.00;102636.03;5054795;28;20392;-72
2022/10/18 07:38:00;;;;;;;59.70;57.40;;;;;;;10.54;100.00;102658.22;5057056;28;20024;-72
2022/10/18 07:40:25;;;;;;;55.17;53.03;;;;;;;10.93;100.00;102664.31;5058650;28;20119;-72
2022/10/18 07:42:51;;;;;;;63.00;60.42;;;;;;;11.12;100.00;102665.56;5058844;28;20052;-72
2022/10/18 07:45:16;;;;;;;66.10;63.53;;;;;;;11.52;100.00;102654.78;5055634;28;20126;-72
2022/10/18 07:47:41;;;;;;;69.47;66.45;;;;;;;12.29;100.00;102683.47;5055960;28;20087;-72
2022/10/18 07:50:07;;;;;;;70.18;67.50;;;;;;;13.13;100.00;102685.84;5056532;28;20516;-73
2022/10/18 07:52:33;;;;;;;35.85;34.30;;;;;;;12.82;100.00;102658.28;5056352;28;20036;-73
2022/10/18 07:54:58;;;;;;;22.85;21.75;;;;;;;12.62;100.00;102660.66;5055388;28;20093;-72
2022/10/18 07:57:23;;;;;;;17.60;16.73;;;;;;;12.66;100.00;102662.13;5055952;28;20857;-72
2022/10/18 07:59:55;;;;;;;31.98;30.73;;;;;;;13.33;100.00;102669.22;5056374;28;20452;-72
2022/10/18 08:02:24;;;;;;;25.40;24.40;;;;;;;14.02;100.00;102673.34;5056583;28;20033;-73
2022/10/18 08:04:49;;;;;;;42.55;40.65;;;;;;;15.18;100.00;102681.13;5056571;28;20029;-74
2022/10/18 08:07:15;;;;;;;40.38;38.83;;;;;;;16.60;100.00;102686.91;5055207;28;20111;-74
2022/10/18 08:09:40;;;;;;;26.08;25.05;;;;;;;17.92;97.12;102687.50;5056501;28;20067;-74
2022/10/18 08:12:05;;;;;;;10.98;10.48;;;;;;;19.05;88.00;102690.22;5056376;28;20060;-74
2022/10/18 08:14:31;;;;;;;6.57;6.00;;;;;;;19.62;81.52;102692.22;5056187;28;20384;-74
2022/10/18 08:16:56;;;;;;;4.05;3.85;;;;;;;19.42;81.19;102683.66;5071542;28;20851;-74
2022/10/18 08:19:21;;;;;;;3.25;2.47;;;;;;;18.16;80.93;102673.50;5055361;28;20044;-74
2022/10/18 08:21:47;;;;;;;3.78;3.47;;;;;;;17.60;85.30;102677.31;5059353;28;20136;-73
2022/10/18 08:24:12;;;;;;;5.13;3.55;;;;;;;17.10;85.58;102670.59;5060319;28;20024;-73
2022/10/18 08:26:37;;;;;;;3.35;3.15;;;;;;;16.41;87.68;102693.13;5058956;28;20108;-73
2022/10/18 08:29:03;;;;;;;4.35;4.05;;;;;;;16.04;89.55;102692.03;5065252;28;20048;-74
2022/10/18 08:31:29;;;;;;;6.28;5.68;;;;;;;15.87;92.34;102690.06;5057415;28;20044;-73
2022/10/18 08:33:56;;;;;;;7.30;6.95;;;;;;;15.68;93.67;102706.88;5060317;28;20063;-73
2022/10/18 08:36:21;;;;;;;9.85;9.25;;;;;;;15.84;96.85;102687.72;5060488;28;20028;-74
2022/10/18 08:38:48;;;;;;;16.63;15.88;;;;;;;16.87;96.54;102702.13;5057538;28;20166;-73
2022/10/18 08:41:40;;;;;;;13.57;12.90;;;;;;;17.48;89.81;102714.03;5060947;28;20090;-73
2022/10/18 08:44:29;;;;;;;10.43;9.93;;;;;;;19.00;84.92;102711.28;5058066;28;20675;-74
2022/10/18 08:46:59;;;;;;;5.90;5.32;;;;;;;19.56;81.95;102704.44;5057541;28;20024;-74
2022/10/18 08:49:28;;;;;;;5.22;4.70;;;;;;;20.78;80.03;102715.34;5058324;28;20021;-74
2022/10/18 08:51:56;;;;;;;4.28;3.97;;;;;;;22.41;74.83;102726.97;5066003;28;20105;-74
2022/10/18 08:54:32;;;;;;;2.95;2.47;;;;;;;23.85;67.06;102710.38;5057589;28;20028;-74
2022/10/18 08:57:00;;;;;;;2.47;2.17;;;;;;;24.93;65.09;102714.47;5059153;28;20041;-74
2022/10/18 08:59:37;;;;;;;2.67;2.33;;;;;;;26.50;60.34;102715.19;5057213;28;20024;-73
2022/10/18 09:02:28;;;;;;;2.45;1.95;;;;;;;27.54;57.70;102709.78;5059361;28;20055;-73
2022/10/18 09:05:00;;;;;;;4.10;1.95;;;;;;;27.90;58.19;102696.38;5057430;28;20186;-74
2022/10/18 09:07:52;;;;;;;3.90;1.98;;;;;;;28.85;56.82;102717.00;5058480;28;20082;-74
2022/10/18 09:10:36;;;;;;;4.10;1.48;;;;;;;29.94;51.65;102726.97;5058020;28;20025;-74
2022/10/18 09:13:19;;;;;;;2.75;1.92;;;;;;;30.75;51.67;102733.50;5059711;28;20078;-74
2022/10/18 09:16:14;;;;;;;3.03;1.50;;;;;;;31.42;50.40;102729.38;5057201;28;20028;-74
2022/10/18 09:19:12;;;;;;;3.83;1.58;;;;;;;31.78;46.56;102728.09;5053318;28;20041;-74
2022/10/18 09:21:57;;;;;;;4.55;1.80;;;;;;;32.06;46.99;102717.38;5058988;28;20024;-74
2022/10/18 09:24:30;;;;;;;3.53;2.00;;;;;;;32.73;47.02;102730.91;5058756;28;20559;-74
2022/10/18 09:27:08;;;;;;;2.78;1.90;;;;;;;33.05;45.32;102713.75;5065066;28;20032;-74
2022/10/18 09:29:56;;;;;;;5.63;1.90;;;;;;;33.43;45.25;102714.72;5059008;28;20024;-74
2022/10/18 09:32:38;;;;;;;3.25;1.80;;;;;;;33.91;45.01;102732.13;5059008;28;20024;-74
2022/10/18 09:35:15;;;;;;;4.50;1.80;;;;;;;33.50;43.82;102726.28;5057518;28;20032;-74
2022/10/18 09:37:42;;;;;;;5.45;2.08;;;;;;;34.04;45.00;102725.38;5058561;28;20488;-74
2022/10/18 09:40:20;;;;;;;3.13;2.22;;;;;;;34.49;42.86;102731.38;5056969;28;20053;-72
2022/10/18 09:43:00;;;;;;;3.28;2.40;;;;;;;34.42;43.26;102712.44;5058772;28;20040;-72
2022/10/18 09:45:28;;;;;;;2.90;1.92;;;;;;;35.09;42.60;102735.47;5056485;28;20504;-71
2022/10/18 09:48:07;;;;;;;2.30;2.10;;;;;;;35.76;42.23;102733.69;5058476;28;20033;-71
2022/10/18 09:50:59;;;;;;;4.38;1.60;;;;;;;35.94;40.29;102739.72;5058109;28;20025;-72
2022/10/18 09:53:36;;;;;;;3.55;2.00;;;;;;;35.81;42.38;102736.41;5058749;28;20016;-72
2022/10/18 09:56:08;;;;;;;4.20;2.00;;;;;;;36.38;41.12;102741.81;5056478;28;20535;-74
2022/10/18 09:58:46;;;;;;;5.90;1.95;;;;;;;36.31;40.42;102741.31;5057150;28;20056;-74
2022/10/18 10:01:14;;;;;;;4.13;2.05;;;;;;;36.72;38.43;102749.44;5057353;28;20020;-74
2022/10/18 10:03:40;;;;;;;5.43;1.73;;;;;;;36.40;40.24;102753.38;5058094;28;20047;-74
2022/10/18 10:06:13;;;;;;;3.10;1.58;;;;;;;36.59;39.62;102757.16;5058812;28;20583;-72
2022/10/18 10:09:07;;;;;;;4.88;1.63;;;;;;;35.94;40.83;102748.75;5057994;28;20029;-72
2022/10/18 10:11:32;;;;;;;3.20;1.73;;;;;;;36.93;38.27;102750.97;5054726;28;20033;-72
2022/10/18 10:14:12;;;;;;;3.37;1.87;;;;;;;37.33;38.67;102751.03;5059003;28;20667;-72
2022/10/18 10:16:53;;;;;;;5.25;1.55;;;;;;;36.29;38.90;102747.06;5054698;28;20353;-72
2022/10/18 10:19:53;;;;;;;3.03;1.63;;;;;;;36.29;39.57;102744.34;5055443;28;20079;-72
2022/10/18 10:22:25;;;;;;;;;;;;;;;34.45;40.63;102741.22;5057927;28;20513;-72
2022/10/18 10:24:53;;;;;;;3.83;1.45;;;;;;;32.76;42.83;102744.03;5057569;28;19912;-73
2022/10/18 10:27:45;;;;;;;5.57;1.60;;;;;;;31.72;43.76;102750.09;5063461;28;20546;-74
2022/10/18 10:30:31;;;;;;;4.53;2.25;;;;;;;32.48;43.59;102730.53;5054307;28;20519;-74
2022/10/18 10:32:57;;;;;;;5.53;2.08;;;;;;;32.17;43.64;102747.31;5055810;28;20057;-74
2022/10/18 10:35:43;;;;;;;4.10;2.45;;;;;;;32.05;43.95;102748.47;5054595;28;20052;-74
2022/10/18 10:38:23;;;;;;;3.63;2.35;;;;;;;30.99;45.21;102741.63;5056543;28;20049;-73
2022/10/18 10:40:49;;;;;;;3.00;2.10;;;;;;;29.01;46.91;102742.69;5057250;28;20111;-73
2022/10/18 10:43:33;;;;;;;3.58;2.10;;;;;;;28.08;50.40;102746.34;5056410;28;20116;-73
2022/10/18 10:46:09;;;;;;;3.67;2.75;;;;;;;30.18;46.85;102746.88;5056150;28;20032;-73
2022/10/18 10:48:48;;;;;;;3.42;3.13;;;;;;;30.73;46.17;102743.81;5056598;28;20081;-73
2022/10/18 10:51:26;;;;;;;4.07;3.57;;;;;;;30.67;46.10;102739.31;5055781;28;20042;-73
2022/10/18 10:54:04;;;;;;;7.18;3.80;;;;;;;28.66;47.06;102735.16;5056617;28;20036;-74
2022/10/18 10:56:36;;;;;;;3.88;2.60;;;;;;;27.39;48.96;102746.16;5057118;28;20029;-74
2022/10/18 10:59:13;;;;;;;3.03;2.63;;;;;;;26.11;51.17;102737.69;5057488;28;20074;-74
2022/10/18 11:01:40;;;;;;;5.72;2.67;;;;;;;25.11;53.01;102721.19;5071338;28;20085;-74
2022/10/18 11:04:27;;;;;;;3.08;2.88;;;;;;;24.85;54.65;102733.56;5056350;28;20139;-73
2022/10/18 11:07:08;;;;;;;6.20;3.97;;;;;;;24.39;57.38;102734.06;5055739;28;20040;-74
2022/10/18 11:09:37;;;;;;;6.97;4.85;;;;;;;23.75;57.52;102745.69;5056836;28;20491;-74
2022/10/18 11:12:39;;;;;;;5.80;5.38;;;;;;;22.68;58.03;102746.22;5056637;28;20016;-73
2022/10/18 11:15:13;;;;;;;8.27;7.57;;;;;;;22.30;60.71;102751.63;5054714;28;20044;-73
2022/10/18 11:17:38;;;;;;;9.57;9.13;;;;;;;23.17;58.49;102751.91;5057945;28;20070;-73
2022/10/18 11:20:10;;;;;;;13.52;12.63;;;;;;;24.92;55.52;102737.13;5056007;28;20036;-74